createdAt,value
2023-05-19T00:11:31.097Z,1.80
2023-05-19T00:26:31.159Z,1.90
2023-05-19T00:41:31.438Z,1.80
2023-05-19T00:56:31.526Z,2.00
2023-05-19T01:11:31.962Z,2.10
2023-05-19T01:26:32.042Z,1.80
2023-05-19T01:41:32.706Z,2.20
2023-05-19T01:56:33.024Z,2.30
2023-05-19T02:11:33.138Z,3.00
2023-05-19T02:28:02.152Z,2.30
2023-05-19T02:43:02.531Z,2.70
2023-05-19T02:58:02.661Z,2.50
2023-05-19T03:13:02.873Z,5.70
2023-05-19T03:28:03.969Z,999.90
2023-05-19T03:43:04.754Z,700.30
2023-05-19T03:58:05.081Z,437.00
2023-05-19T04:13:05.261Z,550.60
2023-05-19T04:28:05.703Z,346.80
2023-05-19T04:43:07.910Z,123.30
2023-05-19T04:58:08.112Z,464.30
2023-05-19T05:13:11.619Z,334.90
2023-05-19T05:28:13.070Z,130.20
2023-05-19T05:43:14.298Z,126.00
2023-05-19T05:58:14.281Z,123.20
2023-05-19T06:13:14.463Z,171.90
2023-05-19T06:28:14.826Z,379.70
2023-05-19T06:43:15.029Z,2.90
2023-05-19T06:58:16.241Z,6.70
2023-05-19T07:13:16.442Z,14.00
2023-05-19T07:28:16.893Z,12.50
2023-05-19T07:43:16.916Z,1.40
2023-05-19T07:58:18.568Z,1.50
2023-05-19T08:13:18.852Z,1.20
2023-05-19T08:28:19.194Z,1.20
2023-05-19T08:43:20.361Z,1.10
2023-05-19T08:58:20.665Z,2.90
2023-05-19T09:13:20.835Z,0.90
2023-05-19T09:28:21.212Z,6.90
2023-05-19T09:43:21.259Z,0.90
2023-05-19T09:58:21.575Z,0.90
2023-05-19T10:13:21.778Z,3.70
2023-05-19T10:28:22.534Z,0.70
2023-05-19T10:43:22.690Z,0.80
2023-05-19T10:58:23.261Z,0.80
2023-05-19T11:13:23.622Z,0.80
2023-05-19T11:28:23.791Z,3.20
2023-05-19T11:43:23.966Z,0.80
2023-05-19T11:58:24.111Z,6.10
2023-05-19T12:13:24.380Z,0.90
2023-05-19T12:28:24.538Z,0.90
2023-05-19T12:43:25.976Z,3.00
2023-05-19T12:58:26.525Z,4.10
2023-05-19T13:13:26.671Z,1.00
2023-05-19T13:28:26.816Z,17.60
2023-05-19T13:43:27.005Z,3.00
2023-05-19T13:58:27.348Z,135.70
2023-05-19T14:13:33.357Z,443.80
2023-05-19T14:28:32.746Z,0.90
2023-05-19T14:43:33.306Z,28.90
2023-05-19T14:58:33.690Z,2.60
2023-05-19T15:13:33.764Z,0.90
2023-05-19T15:28:34.050Z,0.90
2023-05-19T15:43:34.060Z,125.40
2023-05-19T15:58:34.241Z,124.90
2023-05-19T16:13:34.416Z,0.90
2023-05-19T16:28:35.146Z,0.80
2023-05-19T16:43:35.278Z,122.50
2023-05-19T16:58:35.526Z,112.40
2023-05-19T17:13:35.797Z,106.00
2023-05-19T17:28:36.075Z,103.30
2023-05-19T17:43:36.264Z,102.70
2023-05-19T18:05:20.731Z,104.20
2023-05-19T18:20:21.543Z,48.50
2023-05-19T18:35:22.280Z,6.90
2023-05-19T18:50:22.467Z,6.40
2023-05-19T19:05:23.174Z,1.40
2023-05-19T19:20:24.659Z,1.60
2023-05-19T19:35:25.560Z,2.30
2023-05-19T19:50:25.838Z,1.80
2023-05-19T20:05:25.892Z,2.10
2023-05-19T20:20:26.038Z,2.40
2023-05-19T20:35:26.374Z,2.00
2023-05-19T20:50:26.579Z,2.20
2023-05-19T21:05:26.731Z,3.00
2023-05-19T21:20:26.916Z,3.40
2023-05-19T21:35:27.116Z,4.60
2023-05-19T21:50:27.321Z,4.00
2023-05-19T22:05:27.631Z,3.90
2023-05-19T22:20:27.708Z,2.90
2023-05-19T22:35:27.952Z,3.50
2023-05-19T22:50:28.122Z,4.20
2023-05-19T23:05:28.376Z,3.20
2023-05-19T23:20:29.303Z,3.30
2023-05-19T23:35:30.029Z,3.00
2023-05-19T23:50:32.465Z,4.10
